TAF KLBT
KLBT 270522Z 2706/2806 35005KT P6SM SKC FM271900 29004KT P6SM SKC FM280300 19005KT P6SM SKC AMD NOT SKED=
METAR KLBT
WC KLBT
WS KLBT
WV KLBT